Time;durP1;ratioP1;P1;durP2;ratioP2;P2;SDS_P1;SDS_P2;PMS_P1;PMS_P2;Temp;Humidity;BMP_temperature;BMP_pressure;BME280_temperature;BME280_humidity;BME280_pressure;Samples;Min_cycle;Max_cycle;Signal;HPM_P1;HPM_P2
2022/06/22 00:01:11;;;;;;;;;19.75;16.25;;;;;19.92;54.29;100168.19;5057976;28;45391;-68
2022/06/22 00:03:36;;;;;;;;;12.00;11.50;;;;;19.89;54.31;100176.44;5057659;28;46086;-69
2022/06/22 00:06:03;;;;;;;;;13.50;12.50;;;;;19.87;54.77;100175.72;5057849;28;45232;-70
2022/06/22 00:08:34;;;;;;;;;15.75;15.50;;;;;19.81;54.76;100174.44;5057852;28;45374;-69
2022/06/22 00:11:10;;;;;;;;;15.50;14.00;;;;;19.73;55.18;100168.06;5057780;28;45367;-70
2022/06/22 00:13:36;;;;;;;;;18.00;16.75;;;;;19.66;55.02;100168.56;5057361;28;46209;-70
2022/06/22 00:16:01;;;;;;;;;13.75;13.75;;;;;19.66;55.50;100167.75;5057664;28;45430;-70
2022/06/22 00:18:43;;;;;;;;;16.25;14.25;;;;;19.65;55.62;100160.72;5057928;28;45368;-70
2022/06/22 00:21:14;;;;;;;;;18.25;14.75;;;;;19.66;55.17;100167.75;5058009;28;45549;-70
2022/06/22 00:23:42;;;;;;;;;17.00;16.00;;;;;19.65;55.50;100163.38;5055950;28;46492;-69
2022/06/22 00:26:24;;;;;;;;;15.50;15.50;;;;;19.64;55.71;100175.88;5057461;28;45435;-69
2022/06/22 00:29:02;;;;;;;;;15.00;15.00;;;;;19.64;55.53;100161.69;5058067;28;45440;-69
2022/06/22 00:31:30;;;;;;;;;13.00;13.00;;;;;19.60;55.67;100155.75;5057945;28;45618;-68
2022/06/22 00:34:10;;;;;;;;;16.00;14.50;;;;;19.55;55.35;100156.13;5057368;28;45408;-69
2022/06/22 00:36:59;;;;;;;;;16.25;16.25;;;;;19.50;56.04;100153.00;5057414;28;45393;-69
2022/06/22 00:39:28;;;;;;;;;19.25;18.00;;;;;19.45;56.22;100162.41;5057892;28;45425;-69
2022/06/22 00:41:56;;;;;;;;;19.00;17.75;;;;;19.38;56.09;100149.59;5056570;28;45461;-70
2022/06/22 00:44:25;;;;;;;;;22.00;18.75;;;;;19.35;56.41;100160.50;5057462;28;45483;-69
2022/06/22 00:46:58;;;;;;;;;18.00;17.00;;;;;19.27;56.69;100145.16;5057633;28;45401;-70
2022/06/22 00:49:24;;;;;;;;;15.50;14.50;;;;;19.22;56.66;100144.69;5058250;28;45440;-71
2022/06/22 00:51:50;;;;;;;;;15.00;15.00;;;;;19.14;56.94;100141.81;5057615;28;45260;-70
2022/06/22 00:54:24;;;;;;;;;20.50;18.00;;;;;19.08;57.06;100148.50;5057136;28;45424;-70
2022/06/22 00:57:00;;;;;;;;;18.25;16.25;;;;;19.07;57.34;100157.47;5057310;28;45442;-70
2022/06/22 00:59:48;;;;;;;;;19.75;12.75;;;;;19.03;57.17;100149.88;5057624;28;45375;-70
2022/06/22 01:02:29;;;;;;;;;18.75;15.50;;;;;18.89;57.74;100149.16;5055812;28;45241;-69
2022/06/22 01:05:22;;;;;;;;;13.00;13.00;;;;;18.89;57.76;100148.28;5057212;28;46720;-69
2022/06/22 01:07:54;;;;;;;;;17.25;17.25;;;;;18.86;57.60;100146.75;5057133;28;45346;-69
2022/06/22 01:10:33;;;;;;;;;20.00;16.00;;;;;18.79;58.07;100150.88;5055401;28;45271;-68
2022/06/22 01:13:07;;;;;;;;;20.50;19.25;;;;;18.78;57.81;100152.69;5057058;28;45323;-70
2022/06/22 01:15:40;;;;;;;;;17.75;17.75;;;;;18.75;57.86;100155.59;5056934;28;46597;-66
2022/06/22 01:18:22;;;;;;;;;21.25;16.00;;;;;18.70;58.11;100155.13;5056894;28;45367;-70
2022/06/22 01:20:58;;;;;;;;;15.75;14.50;;;;;18.57;58.51;100147.31;5056983;28;45298;-73
2022/06/22 01:23:59;;;;;;;;;17.75;17.00;;;;;18.51;58.39;100159.28;5057179;28;45303;-74
2022/06/22 01:27:01;;;;;;;;;16.25;15.50;;;;;18.43;58.85;100159.06;5054214;28;46531;-68
2022/06/22 01:29:27;;;;;;;;;17.25;17.00;;;;;18.38;58.98;100155.94;5057013;28;45477;-65
2022/06/22 01:32:00;;;;;;;;;17.00;15.00;;;;;18.33;59.01;100164.28;5056935;28;45333;-66
2022/06/22 01:34:31;;;;;;;;;18.00;18.00;;;;;18.31;59.19;100152.91;5057587;28;45220;-71
2022/06/22 01:37:01;;;;;;;;;18.75;16.25;;;;;18.32;58.94;100141.28;5057080;28;45434;-69
2022/06/22 01:39:26;;;;;;;;;17.00;17.00;;;;;18.30;59.21;100140.56;5056965;28;45462;-69
2022/06/22 01:42:07;;;;;;;;;17.00;17.00;;;;;18.27;59.07;100143.47;5055515;28;45284;-72
2022/06/22 01:44:48;;;;;;;;;21.00;18.00;;;;;18.27;59.11;100145.28;5057091;28;45352;-69
2022/06/22 01:47:27;;;;;;;;;19.25;17.25;;;;;18.22;59.28;100132.34;5056803;28;45322;-69
2022/06/22 01:50:24;;;;;;;;;20.25;19.00;;;;;18.28;59.24;100150.47;5055560;28;45407;-70
2022/06/22 01:52:58;;;;;;;;;21.50;18.50;;;;;18.26;59.12;100157.75;5049358;28;45447;-70
2022/06/22 01:55:36;;;;;;;;;18.00;16.50;;;;;18.42;59.26;100170.69;5056723;28;45359;-70
2022/06/22 01:58:19;;;;;;;;;19.00;19.00;;;;;18.48;59.36;100169.34;5056799;28;46116;-68
2022/06/22 02:00:50;;;;;;;;;16.50;16.50;;;;;18.58;59.03;100177.44;5056566;28;45433;-71
2022/06/22 02:03:25;;;;;;;;;20.50;20.50;;;;;18.60;58.87;100183.50;5056813;28;45417;-68
2022/06/22 02:05:58;;;;;;;;;18.00;18.00;;;;;18.66;58.68;100185.66;5057002;28;45345;-69
2022/06/22 02:08:32;;;;;;;;;17.50;17.50;;;;;18.72;58.61;100192.31;5038203;28;46418;-68
2022/06/22 02:11:12;;;;;;;;;17.25;16.00;;;;;18.75;58.69;100187.56;5056558;28;45416;-68
2022/06/22 02:13:41;;;;;;;;;16.75;14.75;;;;;18.77;58.59;100196.28;5054905;28;45348;-69
2022/06/22 02:16:15;;;;;;;;;17.00;15.50;;;;;18.77;58.35;100196.28;5056607;28;45591;-69
2022/06/22 02:18:49;;;;;;;;;17.75;16.75;;;;;18.77;58.52;100204.28;5056434;28;46582;-68
2022/06/22 02:21:41;;;;;;;;;18.75;18.50;;;;;18.77;58.56;100195.47;5056390;28;45393;-68
2022/06/22 02:24:18;;;;;;;;;20.75;19.50;;;;;18.75;58.16;100184.91;5056588;28;45419;-69
2022/06/22 02:27:05;;;;;;;;;19.25;17.25;;;;;18.73;58.21;100183.38;5056529;28;45437;-69
2022/06/22 02:29:37;;;;;;;;;16.00;16.00;;;;;18.74;58.58;100171.72;5056612;28;45543;-69
2022/06/22 02:32:06;;;;;;;;;23.75;19.50;;;;;18.75;58.66;100163.59;5056344;28;45388;-69
2022/06/22 02:34:33;;;;;;;;;18.00;18.00;;;;;18.74;58.26;100156.59;5055999;28;45509;-69
2022/06/22 02:37:03;;;;;;;;;14.75;14.25;;;;;18.75;58.40;100160.09;5056570;28;45478;-69
2022/06/22 02:39:32;;;;;;;;;21.00;19.75;;;;;18.74;58.58;100164.56;5056140;28;45685;-69
2022/06/22 02:44:45;;;;;;;;;17.75;17.75;;;;;18.73;58.50;100170.88;5055928;28;45401;-68
2022/06/22 02:47:29;;;;;;;;;17.00;17.00;;;;;18.77;58.32;100169.66;5056073;28;45577;-69
2022/06/22 02:50:19;;;;;;;;;19.50;18.00;;;;;18.84;58.27;100164.69;5055504;28;45414;-69
2022/06/22 02:52:54;;;;;;;;;17.50;15.00;;;;;18.89;58.15;100164.28;5055918;28;45366;-71
2022/06/22 02:55:27;;;;;;;;;22.25;22.25;;;;;18.92;58.15;100161.38;5055681;28;45521;-70
2022/06/22 02:57:52;;;;;;;;;22.00;20.25;;;;;18.95;58.19;100151.31;5056121;28;45482;-71
2022/06/22 03:00:21;;;;;;;;;17.50;17.50;;;;;18.94;57.85;100148.75;5055592;28;45520;-70
2022/06/22 03:02:49;;;;;;;;;20.00;19.75;;;;;18.88;57.96;100144.81;5055590;28;45369;-70
2022/06/22 03:05:18;;;;;;;;;22.00;19.75;;;;;18.82;58.44;100130.16;5066120;28;45515;-70
2022/06/22 03:07:48;;;;;;;;;19.75;16.25;;;;;18.80;58.23;100126.78;5090903;27;45456;-68
2022/06/22 03:10:28;;;;;;;;;18.50;17.00;;;;;18.74;58.21;100113.94;5093736;27;45521;-68
2022/06/22 03:12:56;;;;;;;;;20.75;20.50;;;;;18.63;58.29;100104.19;5075880;28;45248;-71
2022/06/22 03:15:26;;;;;;;;;20.25;19.75;;;;;18.53;58.58;100106.75;5075587;27;45352;-69
2022/06/22 03:17:51;;;;;;;;;19.00;16.25;;;;;18.46;58.72;100110.03;5076109;27;45184;-69
2022/06/22 03:20:21;;;;;;;;;22.50;20.75;;;;;18.45;59.14;100111.84;5075615;28;45517;-71
2022/06/22 03:22:58;;;;;;;;;17.75;17.75;;;;;18.39;58.99;100113.19;5081028;27;45535;-68
2022/06/22 03:25:35;;;;;;;;;21.00;19.00;;;;;18.38;59.15;100108.84;5111205;27;45321;-69
2022/06/22 03:28:13;;;;;;;;;19.75;19.75;;;;;18.36;59.07;100102.78;5095303;27;45485;-68
2022/06/22 03:30:50;;;;;;;;;18.50;18.25;;;;;18.33;59.43;100096.88;5096093;27;45301;-68
2022/06/22 03:33:24;;;;;;;;;20.50;20.50;;;;;18.31;59.40;100099.66;5111395;27;45402;-68
2022/06/22 03:35:55;;;;;;;;;20.25;18.50;;;;;18.20;59.42;100073.91;5096027;27;45224;-69
2022/06/22 03:38:27;;;;;;;;;20.75;18.50;;;;;18.19;59.33;100090.84;5075801;27;45519;-69
2022/06/22 03:40:57;;;;;;;;;13.00;13.00;;;;;18.14;59.72;100098.34;5075012;27;45446;-69
2022/06/22 03:43:29;;;;;;;;;15.00;15.00;;;;;18.14;59.74;100102.81;5073777;28;45424;-69
2022/06/22 03:46:09;;;;;;;;;19.75;17.00;;;;;18.09;59.78;100082.75;5074890;27;45417;-72
2022/06/22 03:48:44;;;;;;;;;21.50;20.00;;;;;18.12;59.55;100092.31;5075356;27;46656;-70
2022/06/22 03:51:37;;;;;;;;;23.75;20.75;;;;;18.06;59.75;100095.47;5074731;27;46427;-68
2022/06/22 03:54:36;;;;;;;;;20.00;17.25;;;;;18.06;59.67;100098.13;5066729;28;45369;-69
2022/06/22 03:57:07;;;;;;;;;20.50;20.50;;;;;18.04;59.77;100092.91;5055201;28;45478;-72
2022/06/22 03:59:37;;;;;;;;;27.00;23.75;;;;;17.99;59.84;100095.06;5067096;28;45193;-69
2022/06/22 04:02:03;;;;;;;;;22.00;21.50;;;;;17.92;60.37;100094.69;5075207;27;46286;-71
2022/06/22 04:04:29;;;;;;;;;22.75;22.00;;;;;17.81;60.25;100086.72;5074387;27;45963;-72
2022/06/22 04:06:56;;;;;;;;;18.75;18.75;;;;;17.81;60.15;100087.56;5075156;27;45362;-71
2022/06/22 04:09:24;;;;;;;;;19.00;19.00;;;;;17.78;60.44;100094.94;5075321;27;45616;-72
2022/06/22 04:12:17;;;;;;;;;23.25;22.50;;;;;17.82;60.50;100104.38;5074812;27;45314;-68
2022/06/22 04:14:53;;;;;;;;;22.00;19.00;;;;;17.84;60.33;100106.91;5064934;28;45528;-69
2022/06/22 04:17:29;;;;;;;;;18.50;18.50;;;;;17.86;60.32;100103.16;5074567;28;45429;-69
2022/06/22 04:20:01;;;;;;;;;17.75;17.75;;;;;17.86;60.13;100103.16;5090540;27;45278;-72
2022/06/22 04:22:29;;;;;;;;;19.75;19.75;;;;;17.87;60.31;100104.84;5074472;27;46274;-74
2022/06/22 04:25:05;;;;;;;;;18.50;18.00;;;;;17.89;60.21;100113.56;5074302;27;46579;-73
2022/06/22 04:27:38;;;;;;;;;19.75;19.75;;;;;17.92;60.26;100131.94;5073977;28;45506;-74
2022/06/22 04:30:13;;;;;;;;;18.75;17.00;;;;;17.99;59.96;100142.97;5075085;27;45255;-72
2022/06/22 04:32:38;;;;;;;;;19.00;17.50;;;;;18.01;60.15;100134.88;5074387;27;45514;-73
2022/06/22 04:35:27;;;;;;;;;20.00;18.50;;;;;18.07;60.13;100121.13;5075032;28;45235;-71
2022/06/22 04:37:59;;;;;;;;;22.50;22.50;;;;;18.11;59.89;100122.56;5077762;27;45542;-73
2022/06/22 04:41:07;;;;;;;;;23.50;20.75;;;;;18.11;59.60;100122.56;5077615;27;45274;-70
2022/06/22 04:43:35;;;;;;;;;22.25;20.50;;;;;18.08;59.72;100118.31;5069094;28;46567;-72
2022/06/22 04:46:01;;;;;;;;;24.50;21.50;;;;;18.08;59.86;100112.16;5077095;28;45359;-71
2022/06/22 04:48:30;;;;;;;;;20.75;19.50;;;;;18.12;59.75;100116.28;5077409;28;45358;-69
2022/06/22 04:51:00;;;;;;;;;22.25;21.75;;;;;18.16;59.91;100117.72;5077766;27;45499;-70
2022/06/22 04:53:33;;;;;;;;;22.25;22.25;;;;;18.19;59.86;100105.97;5067730;28;45586;-70
2022/06/22 04:56:03;;;;;;;;;22.50;21.50;;;;;18.27;59.48;100118.66;5077252;27;45342;-69
2022/06/22 04:58:56;;;;;;;;;19.25;18.25;;;;;18.29;59.47;100128.22;5077008;27;45493;-72
2022/06/22 05:01:30;;;;;;;;;18.50;18.50;;;;;18.21;59.35;100115.53;5075484;28;45622;-71
2022/06/22 05:03:58;;;;;;;;;21.50;20.50;;;;;18.18;59.87;100121.09;5077374;28;45613;-69
2022/06/22 05:06:34;;;;;;;;;19.75;15.75;;;;;18.25;59.69;100110.78;5077010;27;45336;-71
2022/06/22 05:09:11;;;;;;;;;18.75;18.75;;;;;18.20;59.53;100094.34;5077481;27;45250;-71
2022/06/22 05:11:44;;;;;;;;;24.50;23.50;;;;;18.24;59.58;100107.31;5074273;28;45546;-70
2022/06/22 05:14:15;;;;;;;;;21.25;20.00;;;;;18.29;59.45;100114.06;5077072;28;46775;-69
2022/06/22 05:16:53;;;;;;;;;20.25;20.25;;;;;18.25;59.44;100113.47;5075380;28;46256;-70
2022/06/22 05:19:22;;;;;;;;;27.00;24.00;;;;;18.28;59.44;100110.53;5076870;27;45345;-69
2022/06/22 05:21:48;;;;;;;;;23.25;22.00;;;;;18.27;59.73;100105.34;5077374;27;45637;-70
2022/06/22 05:24:24;;;;;;;;;22.50;18.50;;;;;18.25;59.74;100108.13;5075545;28;47210;-69
2022/06/22 05:26:52;;;;;;;;;32.75;31.75;;;;;18.27;59.87;100121.34;5076875;27;45898;-68
2022/06/22 05:29:37;;;;;;;;;28.00;23.50;;;;;18.29;59.43;100117.56;5076918;27;45338;-69
2022/06/22 05:32:09;;;;;;;;;20.75;20.75;;;;;18.32;60.06;100105.84;5075538;28;45589;-68
2022/06/22 05:34:38;;;;;;;;;22.00;21.75;;;;;18.37;59.54;100095.66;5076543;27;46161;-75
2022/06/22 05:37:12;;;;;;;;;22.50;21.75;;;;;18.42;59.50;100082.81;5076753;27;45319;-70
2022/06/22 05:39:40;;;;;;;;;22.00;22.00;;;;;18.56;59.12;100084.38;5092617;27;45592;-70
2022/06/22 05:42:08;;;;;;;;;22.00;22.00;;;;;18.62;59.13;100098.97;5077263;27;45337;-68
2022/06/22 05:44:34;;;;;;;;;24.00;20.50;;;;;18.68;58.95;100087.81;5076437;27;45440;-70
2022/06/22 05:47:01;;;;;;;;;25.00;22.75;;;;;18.65;58.53;100091.59;5076102;27;45465;-74
2022/06/22 05:49:35;;;;;;;;;21.25;18.25;;;;;18.60;58.84;100087.59;5067391;28;45327;-75
2022/06/22 05:52:17;;;;;;;;;25.00;24.75;;;;;18.58;58.84;100090.41;5079152;27;45265;-74
2022/06/22 05:54:58;;;;;;;;;25.00;22.00;;;;;18.56;59.31;100088.84;5092363;27;47292;-70
2022/06/22 05:57:29;;;;;;;;;20.50;20.50;;;;;18.58;59.23;100095.75;5076698;27;45451;-70
2022/06/22 06:00:24;;;;;;;;;20.50;20.50;;;;;18.57;59.17;100095.84;5075117;28;45359;-72
2022/06/22 06:03:24;;;;;;;;;27.00;25.75;;;;;18.57;58.69;100099.38;5075952;28;45656;-72
2022/06/22 06:05:57;;;;;;;;;26.25;24.75;;;;;18.53;59.18;100101.44;5076165;28;46500;-71
2022/06/22 06:08:28;;;;;;;;;22.00;20.50;;;;;18.49;58.71;100094.66;5076277;27;45412;-70
2022/06/22 06:10:54;;;;;;;;;26.50;24.25;;;;;18.48;58.73;100076.13;5076143;27;45385;-71
2022/06/22 06:13:38;;;;;;;;;23.00;20.25;;;;;18.45;58.58;100076.38;5076083;27;45422;-71
2022/06/22 06:16:12;;;;;;;;;21.25;20.50;;;;;18.42;59.01;100080.16;5076089;28;45821;-72
2022/06/22 06:18:41;;;;;;;;;27.00;23.75;;;;;18.36;58.97;100080.66;5075947;27;45558;-71
2022/06/22 06:21:13;;;;;;;;;26.00;23.75;;;;;18.26;59.25;100083.19;5076411;28;45336;-70
2022/06/22 06:23:47;;;;;;;;;24.75;22.75;;;;;18.23;59.36;100086.13;5076570;28;45329;-71
2022/06/22 06:29:30;;;;;;;;;26.50;26.00;;;;;18.16;59.79;100099.09;5075935;28;45513;-71
2022/06/22 06:32:08;;;;;;;;;24.00;24.00;;;;;18.16;59.61;100096.41;5075505;28;45468;-70
2022/06/22 06:34:45;;;;;;;;;27.25;23.25;;;;;18.23;60.05;100096.75;5076051;28;45226;-72
2022/06/22 06:37:38;;;;;;;;;22.75;19.75;;;;;18.28;59.59;100093.75;5075498;27;46719;-72
2022/06/22 06:40:04;;;;;;;;;22.00;22.00;;;;;18.29;59.46;100098.09;5076248;27;45355;-73
2022/06/22 06:42:38;;;;;;;;;24.25;22.25;;;;;18.20;59.57;100108.50;5075316;27;45338;-71
2022/06/22 06:45:14;;;;;;;;;25.50;23.50;;;;;18.12;59.71;100102.09;5073627;28;45415;-71
2022/06/22 06:47:44;;;;;;;;;21.75;21.50;;;;;18.15;60.03;100093.88;5075545;27;46540;-70
2022/06/22 06:50:20;;;;;;;;;27.00;27.00;;;;;18.25;60.01;100100.16;5075899;28;45351;-71
2022/06/22 06:53:00;;;;;;;;;20.25;20.25;;;;;18.31;59.66;100098.81;5075216;27;45349;-69
2022/06/22 06:55:44;;;;;;;;;25.50;24.25;;;;;18.28;59.84;100105.22;5074214;27;45529;-71
2022/06/22 06:58:11;;;;;;;;;25.75;25.25;;;;;18.24;59.82;100101.97;5074817;28;45601;-71
2022/06/22 07:00:38;;;;;;;;;21.00;21.00;;;;;18.24;59.81;100112.63;5073821;27;45498;-70
2022/06/22 07:03:13;;;;;;;;;24.00;20.50;;;;;18.31;59.49;100122.78;5090897;27;45394;-70
2022/06/22 07:05:38;;;;;;;;;22.00;22.00;;;;;18.34;59.98;100122.53;5075591;28;45275;-76
2022/06/22 07:08:16;;;;;;;;;27.50;24.50;;;;;18.43;59.77;100127.13;5075881;27;45275;-73
2022/06/22 07:10:49;;;;;;;;;22.25;20.75;;;;;18.52;59.76;100113.06;5075408;27;45457;-68
2022/06/22 07:13:45;;;;;;;;;22.75;21.75;;;;;18.62;59.32;100113.16;5075416;27;45489;-70
2022/06/22 07:16:16;;;;;;;;;22.25;20.50;;;;;18.67;59.13;100094.13;5074030;28;45400;-68
2022/06/22 07:18:50;;;;;;;;;29.75;27.50;;;;;18.74;59.24;100095.31;5075485;27;45480;-72
2022/06/22 07:21:43;;;;;;;;;23.25;22.00;;;;;18.86;58.56;100104.13;5075416;27;45303;-71
2022/06/22 07:24:27;;;;;;;;;30.00;25.50;;;;;18.90;58.33;100100.22;5071224;27;45425;-71
2022/06/22 07:27:15;;;;;;;;;25.00;23.25;;;;;18.85;58.38;100083.78;5073037;28;45577;-71
2022/06/22 07:30:03;;;;;;;;;19.50;18.00;;;;;18.89;58.22;100082.53;5073034;28;45510;-71
2022/06/22 07:32:50;;;;;;;;;25.75;23.50;;;;;19.02;58.33;100085.03;5074272;27;45381;-71
2022/06/22 07:35:28;;;;;;;;;25.75;23.75;;;;;19.13;58.38;100089.47;5074933;27;45456;-71
2022/06/22 07:38:16;;;;;;;;;25.00;22.25;;;;;19.19;57.92;100093.47;5074573;27;45359;-70
2022/06/22 07:41:18;;;;;;;;;26.00;22.00;;;;;19.24;57.91;100099.25;5072866;28;48147;-70
2022/06/22 07:43:31;;;;;;;;;23.75;22.25;;;;;19.30;58.16;100106.72;5073969;28;45442;-69
2022/06/22 07:45:56;;;;;;;;;23.75;23.75;;;;;19.41;57.93;100120.00;5074280;27;45465;-71
2022/06/22 07:48:24;;;;;;;;;31.00;25.00;;;;;19.51;57.82;100124.53;5074368;28;45562;-70
2022/06/22 07:50:56;;;;;;;;;22.25;21.25;;;;;19.60;57.19;100122.88;5089021;27;47124;-70
2022/06/22 07:53:44;;;;;;;;;23.50;22.25;;;;;19.66;57.15;100125.06;5074228;27;45362;-72
2022/06/22 07:56:16;;;;;;;;;22.50;22.50;;;;;19.78;56.47;100128.47;5062750;28;45453;-70
2022/06/22 07:59:03;;;;;;;;;24.75;22.25;;;;;19.80;56.93;100122.03;5073975;27;45531;-71
2022/06/22 08:01:35;;;;;;;;;29.75;24.00;;;;;19.90;56.30;100127.44;5073025;27;45850;-71
2022/06/22 08:04:05;;;;;;;;;24.75;23.75;;;;;19.95;56.45;100122.53;5073805;27;45494;-70
2022/06/22 08:06:41;;;;;;;;;21.25;21.25;;;;;20.04;56.49;100128.06;5073862;28;45210;-71
2022/06/22 08:09:14;;;;;;;;;24.25;24.25;;;;;20.11;55.97;100129.19;5074111;27;45468;-73
2022/06/22 08:11:45;;;;;;;;;21.00;20.25;;;;;20.18;56.13;100138.41;5076937;27;46451;-71
2022/06/22 08:14:38;;;;;;;;;24.75;23.00;;;;;20.42;55.96;100161.25;5061612;28;45434;-72
2022/06/22 08:17:08;;;;;;;;;26.25;23.75;;;;;20.73;55.22;100151.31;5092725;27;45309;-70
2022/06/22 08:19:34;;;;;;;;;30.75;26.25;;;;;21.10;54.46;100155.16;5075491;27;45268;-72
2022/06/22 08:22:04;;;;;;;;;21.25;19.50;;;;;21.42;54.50;100138.00;5090464;27;48729;-70
2022/06/22 08:24:33;;;;;;;;;27.00;24.75;;;;;21.70;52.66;100142.59;5075640;28;45448;-72
2022/06/22 08:27:00;;;;;;;;;18.75;18.75;;;;;21.95;52.87;100143.78;5075732;27;45468;-70
2022/06/22 08:29:29;;;;;;;;;22.50;19.50;;;;;22.20;52.14;100144.09;5077760;27;45210;-72
2022/06/22 08:31:59;;;;;;;;;19.75;18.50;;;;;22.38;51.60;100148.69;5077148;27;45623;-71
2022/06/22 08:34:36;;;;;;;;;25.75;22.75;;;;;22.54;51.32;100164.13;5077556;27;45367;-71
2022/06/22 08:37:18;;;;;;;;;19.75;19.75;;;;;22.67;51.18;100151.19;5077697;27;45225;-72
2022/06/22 08:39:52;;;;;;;;;26.25;24.50;;;;;22.73;50.71;100163.16;5078156;28;45363;-69
2022/06/22 08:42:36;;;;;;;;;27.75;23.00;;;;;22.78;50.36;100152.84;5078358;27;45295;-70
2022/06/22 08:45:01;;;;;;;;;19.00;19.00;;;;;22.82;49.45;100151.53;5077254;28;45452;-69
2022/06/22 08:47:45;;;;;;;;;24.50;22.25;;;;;22.88;49.92;100140.19;5077566;28;45366;-69
2022/06/22 08:50:52;;;;;;;;;20.50;20.50;;;;;23.05;49.04;100138.53;5077574;28;45596;-71
2022/06/22 08:53:47;;;;;;;;;25.75;23.25;;;;;23.18;48.97;100138.09;5077560;28;46172;-68
2022/06/22 08:56:58;;;;;;;;;23.25;21.00;;;;;22.98;49.42;100140.13;5077359;27;45412;-70
2022/06/22 08:59:51;;;;;;;;;27.50;25.00;;;;;22.89;49.10;100139.19;5077229;27;45477;-69
2022/06/22 09:02:38;;;;;;;;;22.00;22.00;;;;;22.76;49.89;100138.75;5077836;28;45407;-68
2022/06/22 09:05:21;;;;;;;;;26.75;26.75;;;;;22.70;49.73;100147.38;5076789;27;46257;-70
2022/06/22 09:08:10;;;;;;;;;23.25;21.75;;;;;22.74;49.84;100144.22;5077290;28;45322;-71
2022/06/22 09:10:44;;;;;;;;;27.50;24.50;;;;;22.74;50.07;100144.22;5071189;28;45513;-70
2022/06/22 09:13:27;;;;;;;;;21.50;21.50;;;;;22.75;49.30;100161.19;5077070;27;45612;-70
2022/06/22 09:15:53;;;;;;;;;22.00;22.00;;;;;22.65;49.90;100168.44;5076985;27;46281;-71
2022/06/22 09:18:24;;;;;;;;;18.75;18.75;;;;;22.56;49.89;100163.00;5076004;27;45972;-69
2022/06/22 09:21:05;;;;;;;;;23.50;22.25;;;;;22.45;50.60;100152.47;5076859;28;45422;-71
2022/06/22 09:23:41;;;;;;;;;22.00;19.50;;;;;22.44;51.20;100148.91;5091588;27;45607;-70
2022/06/22 09:26:12;;;;;;;;;32.00;29.25;;;;;22.56;50.63;100159.47;5076745;27;46689;-70
2022/06/22 09:28:44;;;;;;;;;29.50;25.00;;;;;22.84;50.50;100146.03;5076708;28;45266;-71
2022/06/22 09:31:37;;;;;;;;;26.00;24.00;;;;;23.01;49.58;100150.56;5076764;27;45355;-71
2022/06/22 09:34:27;;;;;;;;;25.25;24.50;;;;;23.09;49.08;100151.63;5076991;28;45524;-70
2022/06/22 09:37:20;;;;;;;;;22.50;20.00;;;;;23.11;49.64;100165.72;5075127;28;46359;-69
2022/06/22 09:40:07;;;;;;;;;26.25;23.25;;;;;23.17;49.81;100160.56;5075329;28;45338;-70
2022/06/22 09:42:45;;;;;;;;;23.25;21.25;;;;;23.25;49.66;100164.34;5075264;27;45386;-71
2022/06/22 09:45:19;;;;;;;;;24.50;21.75;;;;;23.36;49.38;100161.44;5076642;28;45381;-71
2022/06/22 09:48:16;;;;;;;;;22.50;20.75;;;;;23.49;48.95;100169.94;5076390;28;45677;-69
2022/06/22 09:50:48;;;;;;;;;27.75;22.50;;;;;23.67;49.33;100158.31;5074020;28;45322;-70
2022/06/22 09:53:31;;;;;;;;;24.00;23.25;;;;;23.88;48.55;100163.31;5076545;27;45335;-70
2022/06/22 09:56:22;;;;;;;;;22.25;21.25;;;;;24.01;48.31;100162.06;5076767;28;45440;-70
2022/06/22 09:59:02;;;;;;;;;22.25;19.50;;;;;24.12;47.72;100158.25;5076571;27;45867;-69
2022/06/22 10:01:37;;;;;;;;;47.25;37.25;;;;;24.21;47.85;100155.44;5074225;28;46331;-71
2022/06/22 10:04:21;;;;;;;;;22.50;22.50;;;;;24.47;47.58;100154.53;5076444;28;45495;-71
2022/06/22 10:06:49;;;;;;;;;24.25;24.25;;;;;24.69;46.98;100157.59;5076168;28;45405;-71
2022/06/22 10:09:25;;;;;;;;;35.75;31.25;;;;;24.88;47.26;100153.81;5074287;27;47040;-70
2022/06/22 10:12:21;;;;;;;;;34.00;25.50;;;;;25.17;46.68;100146.28;5075900;27;45402;-69
2022/06/22 10:15:14;;;;;;;;;21.00;21.00;;;;;25.32;47.03;100157.19;5075745;27;45290;-70
2022/06/22 10:18:02;;;;;;;;;21.00;21.00;;;;;25.35;45.88;100149.63;5076260;27;45389;-71
2022/06/22 10:20:34;;;;;;;;;26.50;23.50;;;;;25.33;46.69;100140.03;5075160;28;45307;-70
2022/06/22 10:23:03;;;;;;;;;23.50;23.50;;;;;25.34;46.49;100141.72;5074529;27;45423;-70
2022/06/22 10:25:44;;;;;;;;;22.50;22.50;;;;;25.33;46.41;100145.41;5074783;28;45410;-71
2022/06/22 10:28:44;;;;;;;;;22.25;20.75;;;;;25.48;46.03;100157.22;5076286;28;45320;-69
2022/06/22 10:31:29;;;;;;;;;29.00;26.25;;;;;25.58;46.58;100148.13;5075006;28;45643;-73
2022/06/22 10:34:11;;;;;;;;;30.50;25.00;;;;;25.72;45.54;100151.97;5075661;27;45325;-70
2022/06/22 10:37:00;;;;;;;;;27.75;26.25;;;;;25.78;45.87;100148.56;5074693;28;45482;-71
2022/06/22 10:39:55;;;;;;;;;23.50;22.50;;;;;25.93;45.79;100144.16;5092217;27;45387;-71
2022/06/22 10:45:29;;;;;;;;;26.00;20.50;;;;;26.22;44.32;100123.88;5075725;28;45350;-74
2022/06/22 10:47:54;;;;;;;;;23.75;23.75;;;;;26.33;45.09;100128.03;5076213;28;45373;-68
2022/06/22 10:50:49;;;;;;;;;25.75;24.50;;;;;26.58;44.90;100127.91;5075592;28;45294;-71
2022/06/22 10:53:54;;;;;;;;;25.00;25.00;;;;;26.82;44.42;100115.28;5075174;28;45438;-71
2022/06/22 10:56:41;;;;;;;;;30.75;28.50;;;;;27.11;43.07;100108.31;5075538;27;45482;-70
2022/06/22 10:59:38;;;;;;;;;23.75;23.25;;;;;27.23;43.92;100114.13;5075471;27;45283;-69
2022/06/22 11:02:16;;;;;;;;;22.25;20.00;;;;;27.45;43.64;100120.50;5075151;28;45205;-70
2022/06/22 11:05:27;;;;;;;;;18.50;18.25;;;;;27.54;43.80;100111.31;5073871;28;47475;-70
2022/06/22 11:08:03;;;;;;;;;26.75;24.25;;;;;27.64;42.63;100102.94;5075360;28;45395;-70
2022/06/22 11:10:41;;;;;;;;;22.75;20.75;;;;;27.65;42.95;100106.50;5075019;28;45243;-71
2022/06/22 11:13:25;;;;;;;;;24.00;23.50;;;;;27.71;43.47;100116.56;5075546;28;45488;-72
2022/06/22 11:16:10;;;;;;;;;22.00;20.75;;;;;27.80;43.93;100114.59;5075466;27;45555;-72
2022/06/22 11:19:04;;;;;;;;;21.00;21.00;;;;;27.93;43.87;100113.94;5075514;27;45300;-70
2022/06/22 11:21:55;;;;;;;;;21.75;17.25;;;;;27.92;44.55;100109.56;5066795;28;45367;-69
2022/06/22 11:24:59;;;;;;;;;22.00;18.00;;;;;27.88;45.06;100116.38;5075266;27;45408;-70
2022/06/22 11:30:51;;;;;;;;;48.25;40.25;;;;;27.75;45.84;100123.28;5074971;28;45439;-69
2022/06/22 11:33:29;;;;;;;;;22.50;22.50;;;;;27.81;45.53;100127.06;5091128;27;45334;-70
2022/06/22 11:36:45;;;;;;;;;16.00;16.00;;;;;27.89;46.06;100124.28;5075200;28;45199;-70
2022/06/22 11:39:45;;;;;;;;;21.50;20.75;;;;;27.84;45.60;100132.97;5065117;28;45494;-69
2022/06/22 11:42:32;;;;;;;;;41.00;34.75;;;;;27.77;45.49;100126.63;5074748;28;45413;-70
2022/06/22 11:48:14;;;;;;;;;37.50;33.25;;;;;27.53;46.52;100131.25;5078502;28;45358;-69
2022/06/22 11:51:22;;;;;;;;;19.50;19.50;;;;;27.38;46.00;100111.44;5078094;27;45191;-70
2022/06/22 11:53:47;;;;;;;;;23.75;21.75;;;;;27.34;46.26;100129.03;5078130;27;45317;-70
2022/06/22 11:56:25;;;;;;;;;25.50;24.25;;;;;27.18;46.59;100135.44;5077858;28;45326;-71
2022/06/22 11:59:02;;;;;;;;;20.75;20.75;;;;;26.87;46.76;100131.78;5077320;28;45401;-71
2022/06/22 12:01:28;;;;;;;;;21.00;21.00;;;;;26.68;46.62;100133.06;5078504;28;47373;-72
2022/06/22 12:04:21;;;;;;;;;22.25;20.75;;;;;26.50;47.09;100127.94;5078483;28;45203;-70
2022/06/22 12:07:22;;;;;;;;;19.75;19.75;;;;;26.24;47.57;100121.00;5076735;27;45392;-71
2022/06/22 12:10:06;;;;;;;;;23.25;23.25;;;;;26.26;48.09;100132.44;5078237;28;45307;-71
2022/06/22 12:12:56;;;;;;;;;21.50;21.50;;;;;26.22;48.06;100136.50;5076577;28;46861;-71